Time;durP1;ratioP1;P1;durP2;ratioP2;P2;SDS_P1;SDS_P2;PMS_P1;PMS_P2;Temp;Humidity;BMP_temperature;BMP_pressure;BME280_temperature;BME280_humidity;BME280_pressure;Samples;Min_cycle;Max_cycle;Signal;HPM_P1;HPM_P2
2021/09/21 00:00:54;;;;;;;4.97;4.57;;;15.50;99.90;;;;;;5134939;27;20478;-59
2021/09/21 00:03:20;;;;;;;5.03;4.53;;;15.50;99.90;;;;;;5135402;27;20482;-59
2021/09/21 00:05:49;;;;;;;7.07;5.33;;;15.50;99.90;;;;;;5134525;27;20463;-59
2021/09/21 00:08:15;;;;;;;5.43;4.93;;;15.50;99.90;;;;;;5135323;27;20490;-59
2021/09/21 00:10:42;;;;;;;6.43;5.90;;;15.50;99.90;;;;;;5134902;27;20463;-57
2021/09/21 00:13:09;;;;;;;7.50;6.77;;;15.50;99.90;;;;;;5135130;27;20474;-60
2021/09/21 00:15:36;;;;;;;6.70;6.10;;;15.50;99.90;;;;;;5135049;27;20468;-60
2021/09/21 00:18:03;;;;;;;6.03;5.53;;;15.50;99.90;;;;;;5134765;27;20462;-60
2021/09/21 00:20:30;;;;;;;5.60;5.10;;;15.50;99.90;;;;;;5134946;27;20463;-59
2021/09/21 00:22:58;;;;;;;5.83;5.33;;;15.50;99.90;;;;;;5126499;27;20471;-60
2021/09/21 00:25:25;;;;;;;7.00;5.37;;;15.50;99.90;;;;;;5129136;27;20504;-59
2021/09/21 00:27:52;;;;;;;5.60;5.10;;;15.50;99.90;;;;;;5134576;27;20464;-60
2021/09/21 00:30:20;;;;;;;6.27;5.23;;;15.50;99.90;;;;;;5134741;27;20478;-60
2021/09/21 00:32:49;;;;;;;7.07;6.37;;;15.50;99.90;;;;;;5134419;27;20471;-59
2021/09/21 00:35:16;;;;;;;5.50;5.10;;;15.50;99.90;;;;;;5134495;27;20487;-60
2021/09/21 00:37:44;;;;;;;8.07;5.57;;;15.50;99.90;;;;;;5134346;27;20472;-59
2021/09/21 00:40:13;;;;;;;5.53;5.10;;;15.50;99.90;;;;;;5134578;27;20981;-59
2021/09/21 00:42:45;;;;;;;6.00;5.47;;;15.50;99.90;;;;;;5134480;27;20976;-59
2021/09/21 00:45:18;;;;;;;5.60;5.20;;;15.50;99.90;;;;;;5134126;27;20459;-59
2021/09/21 00:47:45;;;;;;;5.50;5.00;;;15.50;99.90;;;;;;5134469;27;20471;-59
2021/09/21 00:50:12;;;;;;;5.53;5.03;;;15.50;99.90;;;;;;5124613;27;20462;-59
2021/09/21 00:52:39;;;;;;;5.47;4.97;;;15.50;99.90;;;;;;5134435;27;20470;-59
2021/09/21 00:55:07;;;;;;;5.77;5.27;;;15.50;99.90;;;;;;5133912;27;20474;-59
2021/09/21 00:57:37;;;;;;;7.33;5.37;;;15.50;99.90;;;;;;5134265;27;20474;-59
2021/09/21 01:00:05;;;;;;;7.13;5.80;;;15.50;99.90;;;;;;5133520;27;20481;-59
2021/09/21 01:02:32;;;;;;;6.20;5.60;;;15.50;99.90;;;;;;5134316;27;20464;-59
2021/09/21 01:05:00;;;;;;;6.87;6.27;;;15.50;99.90;;;;;;5133494;27;20463;-59
2021/09/21 01:07:27;;;;;;;8.20;7.40;;;15.50;99.90;;;;;;5133868;27;20467;-57
2021/09/21 01:10:01;;;;;;;8.73;7.13;;;15.50;99.90;;;;;;5133628;27;20474;-58
2021/09/21 01:12:28;;;;;;;6.37;5.77;;;15.50;99.90;;;;;;5133971;27;20459;-59
2021/09/21 01:14:57;;;;;;;6.70;6.03;;;15.50;99.90;;;;;;5133621;27;20460;-58
2021/09/21 01:17:24;;;;;;;5.80;5.17;;;15.50;99.90;;;;;;5133775;27;20499;-59
2021/09/21 01:19:51;;;;;;;8.13;7.40;;;15.50;99.90;;;;;;5133539;27;20825;-58
2021/09/21 01:22:19;;;;;;;6.17;5.57;;;15.50;99.90;;;;;;5132292;27;20460;-59
2021/09/21 01:24:46;;;;;;;6.13;5.53;;;15.50;99.90;;;;;;5133887;27;20995;-59
2021/09/21 01:27:13;;;;;;;7.23;6.53;;;15.40;99.90;;;;;;5133324;27;20466;-58
2021/09/21 01:29:40;;;;;;;5.47;4.97;;;15.40;99.90;;;;;;5133851;27;20988;-59
2021/09/21 01:32:07;;;;;;;8.13;5.80;;;15.40;99.90;;;;;;5133266;27;20459;-58
2021/09/21 01:34:34;;;;;;;7.30;6.70;;;15.40;99.90;;;;;;5133782;27;20471;-59
2021/09/21 01:37:01;;;;;;;7.63;6.83;;;15.40;99.90;;;;;;5132111;27;20468;-59
2021/09/21 01:39:29;;;;;;;5.97;5.37;;;15.40;99.90;;;;;;5133602;27;20474;-59
2021/09/21 01:41:56;;;;;;;7.87;5.90;;;15.40;99.90;;;;;;5133211;27;20471;-59
2021/09/21 01:44:23;;;;;;;7.83;7.13;;;15.30;99.90;;;;;;5133622;27;20460;-59
2021/09/21 01:46:52;;;;;;;8.10;6.00;;;15.30;99.90;;;;;;5133670;27;20984;-58
2021/09/21 01:49:20;;;;;;;7.77;5.57;;;15.30;99.90;;;;;;5133130;27;21056;-58
2021/09/21 01:51:54;;;;;;;6.50;5.97;;;15.30;99.90;;;;;;5133557;27;20470;-59
2021/09/21 01:54:28;;;;;;;6.53;5.57;;;15.30;99.90;;;;;;5133398;27;20451;-59
2021/09/21 01:59:39;;;;;;;6.27;5.23;;;15.30;99.90;;;;;;5092592;27;20488;-59
2021/09/21 02:02:06;;;;;;;8.27;5.93;;;15.30;99.90;;;;;;5133268;27;20466;-59
2021/09/21 02:04:33;;;;;;;6.43;5.93;;;15.30;99.90;;;;;;5133400;27;20834;-60
2021/09/21 02:07:00;;;;;;;7.83;6.27;;;15.30;99.90;;;;;;5132719;27;20455;-59
2021/09/21 02:09:27;;;;;;;6.10;5.50;;;15.30;99.90;;;;;;5133153;27;21167;-59
2021/09/21 02:11:54;;;;;;;6.53;5.80;;;15.30;99.90;;;;;;5133136;27;20459;-59
2021/09/21 02:14:23;;;;;;;6.07;5.47;;;15.30;99.90;;;;;;5133308;27;20459;-59
2021/09/21 02:16:54;;;;;;;8.07;5.77;;;15.30;99.90;;;;;;5132888;27;20466;-58
2021/09/21 02:19:21;;;;;;;6.37;5.77;;;15.30;99.90;;;;;;5133219;27;20549;-59
2021/09/21 02:21:48;;;;;;;7.10;6.40;;;15.30;99.90;;;;;;5132758;27;20467;-59
2021/09/21 02:24:18;;;;;;;5.40;5.00;;;15.20;99.90;;;;;;5131787;27;20943;-59
2021/09/21 02:26:46;;;;;;;7.10;5.63;;;15.30;99.90;;;;;;5132823;27;20965;-59
2021/09/21 02:29:12;;;;;;;6.13;5.63;;;15.30;99.90;;;;;;5133071;27;20467;-59
2021/09/21 02:31:41;;;;;;;5.80;5.20;;;15.30;99.90;;;;;;5132787;27;20546;-53
2021/09/21 02:34:08;;;;;;;6.33;5.50;;;15.20;99.90;;;;;;5133057;27;20812;-59
2021/09/21 02:36:40;;;;;;;6.37;5.77;;;15.30;99.90;;;;;;5133120;27;20476;-59
2021/09/21 02:39:07;;;;;;;5.67;4.97;;;15.30;99.90;;;;;;5123434;27;20486;-59
2021/09/21 02:41:34;;;;;;;5.93;5.43;;;15.30;99.90;;;;;;5133080;27;20464;-59
2021/09/21 02:44:01;;;;;;;8.27;5.20;;;15.20;99.90;;;;;;5132405;27;20466;-59
2021/09/21 02:46:28;;;;;;;5.73;5.23;;;15.20;99.90;;;;;;5132995;27;20809;-59
2021/09/21 02:48:56;;;;;;;5.87;5.40;;;15.20;99.90;;;;;;5134096;27;20463;-58
2021/09/21 02:51:23;;;;;;;5.47;4.97;;;15.20;99.90;;;;;;5136828;27;20474;-59
2021/09/21 02:53:50;;;;;;;7.63;7.00;;;15.20;99.90;;;;;;5136327;27;20477;-58
2021/09/21 02:56:17;;;;;;;5.83;5.33;;;15.20;99.90;;;;;;5136898;27;20467;-60
2021/09/21 02:58:45;;;;;;;7.10;6.40;;;15.20;99.90;;;;;;5136056;27;20472;-59
2021/09/21 03:01:12;;;;;;;5.83;5.33;;;15.20;99.90;;;;;;5136539;27;20462;-59
2021/09/21 03:03:44;;;;;;;6.20;5.70;;;15.20;99.90;;;;;;5127485;27;20799;-57
2021/09/21 03:06:21;;;;;;;8.00;5.87;;;15.20;99.90;;;;;;5136179;27;20507;-59
2021/09/21 03:08:48;;;;;;;6.07;5.43;;;15.20;99.90;;;;;;5122058;27;20482;-59
2021/09/21 03:11:18;;;;;;;5.87;5.27;;;15.20;99.90;;;;;;5136511;27;20847;-59
2021/09/21 03:19:28;;;;;;;5.83;5.30;;;15.20;99.90;;;;;;5072713;28;20459;-58
2021/09/21 03:21:57;;;;;;;8.77;5.50;;;15.20;99.90;;;;;;5072716;28;20462;-59
2021/09/21 03:24:24;;;;;;;6.17;5.37;;;15.20;99.90;;;;;;5095668;27;20459;-59
2021/09/21 03:26:51;;;;;;;8.90;6.63;;;15.20;99.90;;;;;;5135745;27;20766;-60
2021/09/21 03:29:17;;;;;;;6.43;5.83;;;15.20;99.90;;;;;;5135892;27;20472;-60
2021/09/21 03:31:45;;;;;;;8.60;5.93;;;15.20;99.90;;;;;;5135816;27;20473;-60
2021/09/21 03:34:12;;;;;;;7.20;6.50;;;15.20;99.90;;;;;;5135824;27;20940;-59
2021/09/21 03:36:39;;;;;;;6.67;5.60;;;15.20;99.90;;;;;;5135493;27;20471;-60
2021/09/21 03:39:07;;;;;;;6.33;5.73;;;15.20;99.90;;;;;;5135781;27;20456;-59
2021/09/21 03:41:34;;;;;;;5.73;5.23;;;15.10;99.90;;;;;;5135406;27;20467;-59
2021/09/21 03:44:00;;;;;;;5.40;5.00;;;15.20;99.90;;;;;;5125635;27;20809;-59
2021/09/21 03:46:27;;;;;;;6.07;5.47;;;15.20;99.90;;;;;;5135949;27;20467;-59
2021/09/21 03:48:56;;;;;;;6.70;6.00;;;15.20;99.90;;;;;;5134940;27;20464;-59
2021/09/21 03:51:23;;;;;;;5.80;5.30;;;15.20;99.90;;;;;;5135653;27;20808;-60
2021/09/21 03:53:50;;;;;;;5.60;5.10;;;15.20;99.90;;;;;;5135269;27;20466;-59
2021/09/21 03:56:18;;;;;;;6.63;5.93;;;15.20;99.90;;;;;;5135546;27;20463;-59
2021/09/21 03:58:45;;;;;;;8.00;6.67;;;15.20;99.90;;;;;;5134883;27;20472;-60
2021/09/21 04:01:12;;;;;;;8.07;7.30;;;15.20;99.90;;;;;;5134532;27;20464;-59
2021/09/21 04:03:38;;;;;;;6.77;6.17;;;15.20;99.90;;;;;;5125978;27;20482;-59
2021/09/21 04:06:05;;;;;;;7.13;6.43;;;15.20;99.90;;;;;;5135327;27;20458;-59
2021/09/21 04:08:32;;;;;;;7.17;6.40;;;15.20;99.90;;;;;;5134923;27;20478;-59
2021/09/21 04:10:59;;;;;;;7.30;6.30;;;15.20;99.90;;;;;;5135239;27;20460;-59
2021/09/21 04:13:27;;;;;;;7.63;5.53;;;15.20;99.90;;;;;;5135298;27;20808;-60
2021/09/21 04:15:54;;;;;;;10.27;7.10;;;15.20;99.90;;;;;;5134768;27;20473;-60
2021/09/21 04:18:21;;;;;;;6.80;6.10;;;15.20;99.90;;;;;;5134609;27;20468;-59
2021/09/21 04:20:48;;;;;;;9.13;6.90;;;15.20;99.90;;;;;;5134646;27;20463;-60
2021/09/21 04:23:14;;;;;;;7.50;6.80;;;15.20;99.90;;;;;;5128154;27;20927;-60
2021/09/21 04:25:41;;;;;;;7.60;5.70;;;15.20;99.90;;;;;;5126209;27;20457;-59
2021/09/21 04:28:08;;;;;;;6.53;5.93;;;15.20;99.90;;;;;;5133474;27;20459;-59
2021/09/21 04:30:36;;;;;;;6.87;6.17;;;15.20;99.90;;;;;;5134523;27;20478;-59
2021/09/21 04:33:03;;;;;;;6.97;6.37;;;15.20;99.90;;;;;;5134902;27;20470;-59
2021/09/21 04:35:30;;;;;;;6.50;5.90;;;15.20;99.90;;;;;;5134747;27;20460;-59
2021/09/21 04:37:57;;;;;;;7.03;5.97;;;15.10;99.90;;;;;;5133927;27;20456;-60
2021/09/21 04:40:24;;;;;;;6.33;5.27;;;15.20;99.90;;;;;;5134621;27;20543;-59
2021/09/21 04:42:51;;;;;;;6.80;6.10;;;15.20;99.90;;;;;;5130723;27;20473;-60
2021/09/21 04:45:18;;;;;;;5.27;4.77;;;15.10;99.90;;;;;;5127278;27;20477;-60
2021/09/21 04:47:46;;;;;;;6.10;5.60;;;15.10;99.90;;;;;;5134043;27;20456;-59
2021/09/21 04:50:13;;;;;;;6.40;5.63;;;15.10;99.90;;;;;;5134368;27;20493;-59
2021/09/21 04:52:40;;;;;;;7.20;5.60;;;15.10;99.90;;;;;;5133871;27;20468;-60
2021/09/21 04:55:09;;;;;;;5.30;4.90;;;15.10;99.90;;;;;;5134322;27;20460;-59
2021/09/21 04:57:36;;;;;;;8.90;7.90;;;15.20;99.90;;;;;;5133940;27;20458;-60
2021/09/21 05:00:03;;;;;;;6.70;6.03;;;15.20;99.90;;;;;;5134115;27;20478;-60
2021/09/21 05:02:30;;;;;;;7.67;6.97;;;15.20;99.90;;;;;;5130461;27;20938;-59
2021/09/21 05:04:58;;;;;;;7.77;6.97;;;15.10;99.90;;;;;;5130268;27;20496;-60
2021/09/21 05:07:25;;;;;;;7.07;5.63;;;15.20;99.90;;;;;;5134183;27;20800;-59
2021/09/21 05:09:52;;;;;;;6.83;6.23;;;15.20;99.90;;;;;;5133585;27;20471;-60
2021/09/21 05:12:19;;;;;;;13.00;10.00;;;15.20;99.90;;;;;;5133926;27;20531;-59
2021/09/21 05:14:46;;;;;;;7.30;6.60;;;15.20;99.90;;;;;;5133595;27;20296;-60
2021/09/21 05:17:13;;;;;;;8.60;7.70;;;15.20;99.90;;;;;;5134103;27;20468;-59
2021/09/21 05:19:40;;;;;;;6.10;5.50;;;15.10;99.90;;;;;;5133219;27;20472;-59
2021/09/21 05:22:08;;;;;;;6.13;5.00;;;15.20;99.90;;;;;;5131685;27;21126;-59
2021/09/21 05:24:35;;;;;;;6.50;6.00;;;15.10;99.90;;;;;;5131996;27;20459;-59
2021/09/21 05:27:02;;;;;;;6.37;5.73;;;15.10;99.90;;;;;;5133445;27;21267;-59
2021/09/21 05:29:29;;;;;;;9.50;8.10;;;15.10;99.90;;;;;;5133413;27;20481;-59
2021/09/21 05:31:55;;;;;;;7.67;6.87;;;15.10;99.90;;;;;;5133284;27;20463;-60
2021/09/21 05:34:22;;;;;;;8.63;7.83;;;15.10;99.90;;;;;;5133782;27;20472;-59
2021/09/21 05:36:49;;;;;;;7.90;7.20;;;15.10;99.90;;;;;;5133241;27;20463;-59
2021/09/21 05:39:17;;;;;;;8.20;6.53;;;15.10;99.90;;;;;;5133413;27;20489;-59
2021/09/21 05:41:44;;;;;;;7.70;6.90;;;15.10;99.90;;;;;;5133226;27;20812;-60
2021/09/21 05:44:11;;;;;;;8.03;7.33;;;15.10;99.90;;;;;;5133401;27;20970;-60
2021/09/21 05:46:38;;;;;;;7.20;6.50;;;15.00;99.90;;;;;;5133428;27;20472;-59
2021/09/21 05:49:05;;;;;;;7.87;7.17;;;15.00;99.90;;;;;;5133041;27;20466;-59
2021/09/21 05:51:32;;;;;;;8.20;6.30;;;15.10;99.90;;;;;;5133531;27;20464;-60
2021/09/21 05:53:59;;;;;;;8.07;7.27;;;15.10;99.90;;;;;;5118920;27;20465;-59
2021/09/21 05:56:31;;;;;;;8.00;6.60;;;15.10;99.90;;;;;;5133587;27;20470;-59
2021/09/21 05:58:58;;;;;;;7.47;6.73;;;15.10;99.90;;;;;;5120078;27;20980;-59
2021/09/21 06:01:25;;;;;;;6.47;5.87;;;15.20;99.90;;;;;;5129845;27;20460;-59
2021/09/21 06:03:52;;;;;;;10.20;8.23;;;15.10;99.90;;;;;;5132867;27;20468;-59
2021/09/21 06:06:19;;;;;;;10.30;7.20;;;15.20;99.90;;;;;;5133370;27;20474;-59
2021/09/21 06:08:45;;;;;;;8.07;6.77;;;15.30;99.90;;;;;;5132807;27;20808;-59
2021/09/21 06:11:12;;;;;;;7.30;6.57;;;15.30;99.90;;;;;;5133238;27;20466;-59
2021/09/21 06:13:42;;;;;;;7.70;6.83;;;15.30;99.90;;;;;;5133456;27;20468;-59
2021/09/21 06:16:09;;;;;;;7.00;6.40;;;15.30;99.90;;;;;;5132930;27;20467;-60
2021/09/21 06:18:35;;;;;;;12.30;6.30;;;15.30;99.90;;;;;;5133162;27;20820;-59
2021/09/21 06:21:02;;;;;;;8.10;7.10;;;15.30;99.90;;;;;;5132575;27;20460;-60
2021/09/21 06:23:29;;;;;;;9.53;7.10;;;15.40;99.90;;;;;;5129587;27;20463;-60
2021/09/21 06:25:56;;;;;;;8.70;7.80;;;15.40;99.90;;;;;;5136646;27;20784;-60
2021/09/21 06:28:23;;;;;;;11.60;10.40;;;15.30;99.90;;;;;;5137316;27;20470;-60
2021/09/21 06:30:51;;;;;;;10.87;9.10;;;15.40;99.90;;;;;;5136743;27;20467;-58
2021/09/21 06:33:18;;;;;;;10.80;9.80;;;15.50;99.90;;;;;;5137083;27;20546;-59
2021/09/21 06:35:45;;;;;;;11.10;9.90;;;15.50;99.90;;;;;;5136980;27;20467;-59
2021/09/21 06:38:12;;;;;;;10.27;8.83;;;15.50;99.90;;;;;;5136515;27;21359;-59
2021/09/21 06:40:39;;;;;;;10.30;9.37;;;15.50;99.90;;;;;;5137128;27;20463;-59
2021/09/21 06:43:05;;;;;;;8.83;8.07;;;15.60;99.90;;;;;;5130879;27;20478;-60
2021/09/21 06:45:32;;;;;;;7.97;7.20;;;15.60;99.90;;;;;;5133166;27;20983;-60
2021/09/21 06:48:01;;;;;;;12.47;8.30;;;15.60;99.90;;;;;;5136621;27;20467;-60
2021/09/21 06:50:28;;;;;;;7.80;7.00;;;15.70;99.90;;;;;;5136487;27;20481;-59
2021/09/21 06:52:55;;;;;;;13.63;7.17;;;15.70;99.90;;;;;;5136427;27;20468;-59
2021/09/21 06:55:21;;;;;;;6.60;5.90;;;15.70;99.90;;;;;;5136752;27;20808;-60
2021/09/21 06:57:53;;;;;;;7.40;6.60;;;15.80;99.90;;;;;;5136601;27;20477;-59
2021/09/21 07:00:21;;;;;;;7.50;6.53;;;15.80;99.90;;;;;;5136168;27;20467;-60
2021/09/21 07:02:52;;;;;;;5.23;4.73;;;15.80;99.90;;;;;;5133337;27;20469;-59
2021/09/21 07:05:20;;;;;;;5.50;5.00;;;15.90;99.90;;;;;;5136104;27;20463;-59
2021/09/21 07:07:49;;;;;;;7.27;6.60;;;15.90;99.90;;;;;;5136359;27;20467;-60
2021/09/21 07:10:18;;;;;;;6.50;5.90;;;16.00;99.90;;;;;;5122156;27;20497;-59
2021/09/21 07:12:45;;;;;;;5.97;5.47;;;16.00;99.90;;;;;;5136345;27;20490;-59
2021/09/21 07:15:13;;;;;;;6.13;5.43;;;16.10;99.90;;;;;;5135936;27;20962;-59
2021/09/21 07:17:40;;;;;;;7.00;5.50;;;16.10;99.90;;;;;;5136398;27;20949;-60
2021/09/21 07:20:08;;;;;;;7.17;6.47;;;16.10;99.90;;;;;;5135593;27;20468;-59
2021/09/21 07:22:36;;;;;;;7.43;6.70;;;16.20;99.90;;;;;;5132763;27;20471;-59
2021/09/21 07:25:04;;;;;;;7.57;6.90;;;16.20;99.90;;;;;;5135723;27;20566;-60
2021/09/21 07:27:30;;;;;;;9.37;7.00;;;16.20;99.90;;;;;;5136094;27;20474;-60
2021/09/21 07:29:57;;;;;;;5.83;5.20;;;16.20;99.90;;;;;;5135843;27;20474;-58
2021/09/21 07:32:24;;;;;;;6.93;6.17;;;16.30;99.90;;;;;;5135990;27;20463;-60
2021/09/21 07:34:53;;;;;;;6.00;5.50;;;16.30;99.90;;;;;;5135864;27;20474;-60
2021/09/21 07:37:20;;;;;;;6.97;6.13;;;16.40;99.90;;;;;;5135261;27;20455;-58
2021/09/21 07:39:48;;;;;;;8.37;7.57;;;16.40;99.90;;;;;;5135667;27;20464;-59
2021/09/21 07:42:17;;;;;;;8.20;7.40;;;16.40;99.90;;;;;;5135110;27;21001;-59
2021/09/21 07:44:44;;;;;;;7.00;6.30;;;16.40;99.90;;;;;;5134428;27;20459;-60
2021/09/21 07:47:11;;;;;;;6.97;6.27;;;16.50;99.90;;;;;;5135349;27;20466;-60
2021/09/21 07:49:38;;;;;;;6.37;5.77;;;16.60;99.90;;;;;;5135402;27;20464;-59
2021/09/21 07:52:05;;;;;;;7.63;6.20;;;16.60;99.90;;;;;;5135051;27;20473;-59
2021/09/21 07:54:32;;;;;;;7.77;5.50;;;16.60;99.90;;;;;;5135653;27;20465;-59
2021/09/21 07:57:01;;;;;;;7.70;4.60;;;16.60;99.90;;;;;;5135520;27;20460;-59
2021/09/21 07:59:28;;;;;;;6.73;5.40;;;16.70;99.90;;;;;;5135128;27;20532;-59
2021/09/21 08:01:55;;;;;;;6.67;5.63;;;16.80;99.90;;;;;;5123338;27;21049;-60
2021/09/21 08:04:22;;;;;;;5.47;4.97;;;16.80;99.90;;;;;;5134500;27;20547;-59
2021/09/21 08:06:49;;;;;;;6.20;5.10;;;16.90;99.90;;;;;;5135365;27;20470;-59
2021/09/21 08:09:16;;;;;;;6.57;5.10;;;16.90;99.90;;;;;;5134901;27;20459;-58
2021/09/21 08:11:43;;;;;;;5.00;4.60;;;16.90;99.70;;;;;;5135302;27;20460;-60
2021/09/21 08:14:11;;;;;;;3.87;3.47;;;17.00;99.20;;;;;;5134853;27;20463;-60
2021/09/21 08:16:38;;;;;;;5.10;4.20;;;17.00;98.70;;;;;;5135393;27;20459;-59
2021/09/21 08:19:05;;;;;;;4.00;3.70;;;17.00;98.50;;;;;;5134423;27;20548;-58
2021/09/21 08:21:32;;;;;;;5.43;4.90;;;17.00;98.60;;;;;;5135007;27;20470;-59
2021/09/21 08:23:59;;;;;;;11.57;9.13;;;17.10;98.00;;;;;;5131968;27;20470;-60
2021/09/21 08:26:26;;;;;;;7.70;6.40;;;17.10;98.00;;;;;;5128138;27;20521;-60
2021/09/21 08:28:53;;;;;;;8.40;6.23;;;17.20;98.10;;;;;;5134789;27;20977;-60
2021/09/21 08:31:21;;;;;;;7.07;6.10;;;17.20;98.00;;;;;;5134433;27;20470;-60
2021/09/21 08:33:48;;;;;;;9.30;5.80;;;17.20;97.80;;;;;;5134666;27;20478;-60
2021/09/21 08:36:15;;;;;;;6.60;5.80;;;17.20;97.50;;;;;;5133671;27;20472;-60
2021/09/21 08:38:41;;;;;;;5.47;4.83;;;17.30;97.30;;;;;;5134367;27;20470;-58
2021/09/21 08:41:08;;;;;;;4.53;4.07;;;17.30;97.40;;;;;;5133681;27;20468;-59
2021/09/21 08:43:35;;;;;;;5.00;4.50;;;17.40;97.60;;;;;;5133752;27;20456;-60
2021/09/21 08:46:02;;;;;;;4.70;4.20;;;17.40;97.70;;;;;;5133911;27;20460;-59
2021/09/21 08:48:31;;;;;;;8.47;4.50;;;17.60;97.40;;;;;;5133837;27;20455;-60
2021/09/21 08:50:58;;;;;;;6.40;5.80;;;17.60;96.60;;;;;;5134468;27;20463;-60
2021/09/21 08:53:25;;;;;;;7.10;5.57;;;17.60;96.30;;;;;;5133712;27;20467;-60
2021/09/21 08:55:52;;;;;;;6.07;5.43;;;17.60;96.30;;;;;;5134378;27;20474;-60
2021/09/21 08:58:24;;;;;;;5.53;5.03;;;17.70;96.40;;;;;;5133864;27;20487;-59
2021/09/21 09:00:51;;;;;;;4.70;4.10;;;17.60;96.00;;;;;;5134281;27;20468;-59
2021/09/21 09:03:19;;;;;;;4.40;4.00;;;17.70;95.80;;;;;;5133435;27;20487;-60
2021/09/21 09:05:49;;;;;;;5.10;4.60;;;17.70;95.50;;;;;;5134314;27;20468;-60
2021/09/21 09:08:29;;;;;;;3.90;3.60;;;17.70;95.30;;;;;;5133682;27;20468;-59
2021/09/21 09:11:10;;;;;;;6.27;5.57;;;17.80;95.00;;;;;;5134068;27;20459;-59
2021/09/21 09:13:37;;;;;;;5.80;5.00;;;17.70;94.40;;;;;;5133994;27;21223;-60
2021/09/21 09:16:07;;;;;;;4.43;4.07;;;17.70;94.40;;;;;;5134012;27;20467;-60
2021/09/21 09:18:34;;;;;;;7.00;5.10;;;17.70;94.30;;;;;;5133436;27;20467;-60
2021/09/21 09:21:02;;;;;;;5.37;4.87;;;17.70;94.50;;;;;;5133746;27;20467;-60
2021/09/21 09:23:30;;;;;;;4.83;4.43;;;17.70;94.20;;;;;;5130448;27;20790;-59
2021/09/21 09:25:59;;;;;;;4.30;3.97;;;17.80;94.40;;;;;;5133611;27;20474;-59
2021/09/21 09:28:27;;;;;;;4.70;4.27;;;17.80;94.40;;;;;;5133317;27;20463;-60
2021/09/21 09:30:56;;;;;;;4.23;3.87;;;17.80;94.50;;;;;;5133654;27;20466;-60
2021/09/21 09:33:23;;;;;;;6.13;3.87;;;17.80;94.50;;;;;;5133389;27;20464;-60
2021/09/21 09:35:51;;;;;;;3.90;3.60;;;17.80;94.60;;;;;;5133590;27;20474;-59
2021/09/21 09:38:21;;;;;;;5.10;4.10;;;17.80;94.60;;;;;;5133220;27;20961;-59
2021/09/21 09:40:50;;;;;;;4.40;3.60;;;17.80;94.70;;;;;;5133294;27;20463;-60
2021/09/21 09:43:19;;;;;;;4.60;3.73;;;17.90;94.50;;;;;;5125819;27;20473;-59
2021/09/21 09:45:49;;;;;;;4.97;3.90;;;17.90;94.50;;;;;;5133602;27;20459;-59
2021/09/21 09:48:19;;;;;;;4.37;3.97;;;17.90;94.50;;;;;;5132978;27;20478;-60
2021/09/21 09:50:47;;;;;;;4.67;4.00;;;17.90;94.60;;;;;;5133439;27;20801;-59
2021/09/21 09:53:16;;;;;;;4.40;3.70;;;17.90;94.80;;;;;;5133545;27;20876;-60
2021/09/21 09:55:47;;;;;;;8.43;4.60;;;17.90;95.00;;;;;;5133214;27;20456;-60
2021/09/21 09:58:14;;;;;;;5.47;4.97;;;17.90;95.10;;;;;;5133835;27;20472;-60
2021/09/21 10:00:42;;;;;;;4.47;4.10;;;17.90;94.80;;;;;;5137232;27;20959;-60
2021/09/21 10:03:10;;;;;;;6.53;5.10;;;17.90;94.50;;;;;;5136102;27;20474;-60
2021/09/21 10:05:39;;;;;;;5.80;5.30;;;17.90;94.20;;;;;;5137169;27;20482;-60
2021/09/21 10:08:07;;;;;;;4.13;3.73;;;17.90;93.90;;;;;;5137567;27;20832;-59
2021/09/21 10:10:36;;;;;;;5.63;4.17;;;17.90;93.70;;;;;;5136892;27;20470;-60
2021/09/21 10:13:07;;;;;;;4.10;3.70;;;18.00;93.60;;;;;;5137451;27;21025;-60
2021/09/21 10:15:34;;;;;;;3.87;3.57;;;18.00;93.10;;;;;;5136919;27;20470;-60
2021/09/21 10:18:02;;;;;;;3.33;3.03;;;18.10;92.70;;;;;;5137306;27;20473;-59
2021/09/21 10:20:33;;;;;;;4.00;3.70;;;18.00;92.00;;;;;;5135726;27;20425;-59
2021/09/21 10:23:01;;;;;;;5.60;3.50;;;18.10;91.90;;;;;;5123499;27;20221;-60
2021/09/21 10:25:31;;;;;;;3.70;3.40;;;18.20;92.00;;;;;;5136569;27;20474;-60
2021/09/21 10:27:58;;;;;;;4.47;4.07;;;18.30;92.00;;;;;;5137367;27;20462;-60
2021/09/21 10:30:29;;;;;;;5.23;4.73;;;18.30;92.10;;;;;;5136670;27;20471;-60
2021/09/21 10:32:57;;;;;;;6.73;5.23;;;18.30;92.10;;;;;;5137239;27;20534;-60
2021/09/21 10:35:28;;;;;;;3.80;3.50;;;18.40;92.10;;;;;;5136640;27;20474;-59
2021/09/21 10:38:00;;;;;;;4.40;4.00;;;18.40;92.10;;;;;;5136881;27;20474;-59
2021/09/21 10:40:40;;;;;;;5.17;3.73;;;18.50;92.10;;;;;;5136345;27;20478;-59
2021/09/21 10:43:21;;;;;;;4.30;3.60;;;18.50;91.90;;;;;;5137009;27;20459;-61
2021/09/21 10:45:50;;;;;;;4.43;4.13;;;18.40;91.60;;;;;;5136655;27;20459;-60
2021/09/21 10:48:21;;;;;;;4.40;4.00;;;18.50;91.80;;;;;;5136550;27;20463;-60
2021/09/21 10:50:57;;;;;;;4.20;3.90;;;18.40;92.20;;;;;;5135959;27;20954;-60
2021/09/21 10:53:25;;;;;;;5.43;4.10;;;18.40;92.40;;;;;;5136962;27;20469;-60
2021/09/21 10:56:00;;;;;;;10.53;4.53;;;18.50;92.30;;;;;;5136460;27;21568;-60
2021/09/21 10:58:27;;;;;;;5.43;3.60;;;18.40;92.30;;;;;;5136487;27;20474;-60
2021/09/21 11:00:56;;;;;;;6.33;4.00;;;18.40;92.20;;;;;;5136142;27;21226;-60
2021/09/21 11:03:25;;;;;;;5.00;4.47;;;18.40;92.20;;;;;;5126486;27;20879;-60
2021/09/21 11:05:54;;;;;;;10.17;4.13;;;18.40;92.30;;;;;;5135852;27;20474;-60
2021/09/21 11:08:27;;;;;;;4.40;4.00;;;18.40;92.60;;;;;;5136330;27;20467;-59
2021/09/21 11:10:59;;;;;;;5.43;4.00;;;18.30;92.20;;;;;;5135495;27;20465;-60
2021/09/21 11:13:26;;;;;;;6.37;5.50;;;18.20;91.90;;;;;;5136474;27;21021;-59
2021/09/21 11:15:59;;;;;;;5.13;4.67;;;18.20;91.90;;;;;;5135701;27;20462;-60
2021/09/21 11:18:26;;;;;;;5.73;4.73;;;18.20;92.00;;;;;;5136064;27;20474;-60
2021/09/21 11:20:56;;;;;;;5.50;5.00;;;18.10;92.10;;;;;;5135688;27;20462;-59
2021/09/21 11:23:24;;;;;;;5.00;4.43;;;18.10;92.10;;;;;;5124477;27;21250;-60
2021/09/21 11:25:52;;;;;;;4.73;4.23;;;18.10;91.10;;;;;;5135638;27;20789;-60
2021/09/21 11:28:20;;;;;;;4.40;4.00;;;18.10;91.10;;;;;;5135989;27;20481;-59
2021/09/21 11:30:47;;;;;;;4.60;4.17;;;18.10;91.10;;;;;;5135754;27;20572;-60
2021/09/21 11:33:18;;;;;;;6.20;4.30;;;18.20;90.80;;;;;;5136139;27;20548;-60
2021/09/21 11:35:49;;;;;;;5.77;5.23;;;18.20;90.90;;;;;;5135637;27;20490;-60
2021/09/21 11:38:17;;;;;;;5.13;4.63;;;18.20;90.80;;;;;;5135728;27;20470;-60
2021/09/21 11:40:45;;;;;;;4.07;3.70;;;18.20;90.90;;;;;;5135436;27;20468;-59
2021/09/21 11:43:13;;;;;;;4.40;4.10;;;18.20;91.30;;;;;;5135767;27;20809;-60
2021/09/21 11:45:40;;;;;;;4.37;3.97;;;18.20;90.90;;;;;;5135208;27;20472;-59
2021/09/21 11:48:09;;;;;;;5.80;4.67;;;18.20;91.00;;;;;;5135639;27;20493;-58
2021/09/21 11:50:40;;;;;;;5.53;4.03;;;18.30;91.10;;;;;;5135129;27;20486;-59
2021/09/21 11:53:09;;;;;;;6.50;4.10;;;18.20;91.00;;;;;;5135470;27;20512;-59
2021/09/21 11:55:38;;;;;;;6.33;4.10;;;18.20;91.20;;;;;;5135105;27;20470;-59
2021/09/21 11:58:07;;;;;;;7.30;6.13;;;18.20;91.30;;;;;;5135387;27;20467;-60
2021/09/21 12:00:36;;;;;;;6.37;5.77;;;18.30;91.30;;;;;;5135029;27;20482;-60
2021/09/21 12:03:06;;;;;;;5.57;5.07;;;18.30;91.20;;;;;;5132424;27;20458;-60
2021/09/21 12:05:34;;;;;;;7.20;6.50;;;18.30;91.40;;;;;;5135364;27;20460;-60
2021/09/21 12:08:05;;;;;;;6.20;5.27;;;18.40;91.60;;;;;;5134962;27;20458;-60
2021/09/21 12:10:33;;;;;;;8.03;5.43;;;18.40;91.50;;;;;;5135226;27;20443;-60
2021/09/21 12:13:04;;;;;;;6.57;4.63;;;18.40;91.40;;;;;;5134797;27;20466;-60
2021/09/21 12:15:32;;;;;;;7.00;5.40;;;18.40;91.50;;;;;;5135227;27;20490;-59
2021/09/21 12:18:00;;;;;;;5.10;4.60;;;18.40;91.40;;;;;;5134585;27;20940;-60
2021/09/21 12:20:30;;;;;;;4.00;3.70;;;18.50;91.00;;;;;;5134426;27;20486;-60
2021/09/21 12:22:57;;;;;;;4.50;4.10;;;18.40;90.90;;;;;;5133335;27;20555;-59
2021/09/21 12:25:31;;;;;;;5.37;4.70;;;18.40;90.80;;;;;;5134623;27;20466;-59
2021/09/21 12:27:59;;;;;;;5.50;4.40;;;18.40;90.90;;;;;;5134589;27;20479;-59
2021/09/21 12:30:28;;;;;;;4.83;4.43;;;18.40;91.20;;;;;;5134725;27;20468;-59
2021/09/21 12:33:00;;;;;;;5.20;4.70;;;18.40;91.40;;;;;;5134322;27;20468;-60
2021/09/21 12:35:30;;;;;;;5.57;5.03;;;18.40;91.40;;;;;;5134545;27;20466;-59
2021/09/21 12:38:08;;;;;;;5.10;4.70;;;18.40;91.50;;;;;;5134246;27;20482;-59
2021/09/21 12:40:49;;;;;;;5.97;5.40;;;18.40;91.60;;;;;;5134704;27;20791;-59
2021/09/21 12:43:19;;;;;;;3.93;3.63;;;18.40;91.50;;;;;;5134805;27;20448;-60
2021/09/21 12:45:46;;;;;;;5.50;5.00;;;18.40;91.30;;;;;;5134200;27;20455;-59
2021/09/21 12:48:13;;;;;;;4.43;4.07;;;18.40;91.10;;;;;;5134260;27;20805;-59
2021/09/21 12:50:41;;;;;;;4.00;3.60;;;18.30;90.80;;;;;;5134021;27;20538;-59
2021/09/21 12:53:17;;;;;;;3.67;3.37;;;18.40;90.60;;;;;;5134525;27;20483;-60
2021/09/21 12:55:46;;;;;;;4.27;3.87;;;18.40;90.60;;;;;;5134032;27;20451;-59
2021/09/21 12:58:14;;;;;;;3.87;3.53;;;18.40;90.50;;;;;;5134038;27;20455;-60